sensor_id;sensor_type;location;lat;lon;timestamp;P1;durP1;ratioP1;P2;durP2;ratioP2
6105;SDS011;3083;51.508;7.966;2023-05-15T00:01:36;17.10;;;9.33;;
6105;SDS011;3083;51.508;7.966;2023-05-15T00:04:03;15.95;;;9.15;;
6105;SDS011;3083;51.508;7.966;2023-05-15T00:06:30;14.30;;;8.65;;
6105;SDS011;3083;51.508;7.966;2023-05-15T00:08:57;13.10;;;8.40;;
6105;SDS011;3083;51.508;7.966;2023-05-15T00:11:24;15.80;;;8.73;;
6105;SDS011;3083;51.508;7.966;2023-05-15T00:13:53;15.00;;;8.90;;
6105;SDS011;3083;51.508;7.966;2023-05-15T00:16:20;15.90;;;8.30;;
6105;SDS011;3083;51.508;7.966;2023-05-15T00:18:47;12.23;;;7.73;;
6105;SDS011;3083;51.508;7.966;2023-05-15T00:21:14;13.77;;;8.77;;
6105;SDS011;3083;51.508;7.966;2023-05-15T00:23:41;12.77;;;8.10;;
6105;SDS011;3083;51.508;7.966;2023-05-15T00:26:07;12.70;;;7.63;;
6105;SDS011;3083;51.508;7.966;2023-05-15T00:28:34;13.47;;;7.80;;
6105;SDS011;3083;51.508;7.966;2023-05-15T00:31:03;15.53;;;8.27;;
6105;SDS011;3083;51.508;7.966;2023-05-15T00:33:29;14.90;;;8.67;;
6105;SDS011;3083;51.508;7.966;2023-05-15T00:35:56;19.30;;;8.50;;
6105;SDS011;3083;51.508;7.966;2023-05-15T00:38:23;13.43;;;8.50;;
6105;SDS011;3083;51.508;7.966;2023-05-15T00:40:50;14.10;;;8.40;;
6105;SDS011;3083;51.508;7.966;2023-05-15T00:43:18;12.93;;;8.63;;
6105;SDS011;3083;51.508;7.966;2023-05-15T00:45:46;16.17;;;8.90;;
6105;SDS011;3083;51.508;7.966;2023-05-15T00:48:14;15.13;;;9.10;;
6105;SDS011;3083;51.508;7.966;2023-05-15T00:50:42;14.70;;;9.10;;
6105;SDS011;3083;51.508;7.966;2023-05-15T00:53:09;16.47;;;9.07;;
6105;SDS011;3083;51.508;7.966;2023-05-15T00:55:36;13.47;;;8.47;;
6105;SDS011;3083;51.508;7.966;2023-05-15T00:58:04;13.07;;;7.90;;
6105;SDS011;3083;51.508;7.966;2023-05-15T01:00:33;15.90;;;8.67;;
6105;SDS011;3083;51.508;7.966;2023-05-15T01:03:00;14.03;;;8.30;;
6105;SDS011;3083;51.508;7.966;2023-05-15T01:05:28;16.07;;;8.90;;
6105;SDS011;3083;51.508;7.966;2023-05-15T01:07:55;14.37;;;8.67;;
6105;SDS011;3083;51.508;7.966;2023-05-15T01:10:32;14.90;;;8.50;;
6105;SDS011;3083;51.508;7.966;2023-05-15T01:13:01;13.87;;;8.70;;
6105;SDS011;3083;51.508;7.966;2023-05-15T01:15:28;15.00;;;8.60;;
6105;SDS011;3083;51.508;7.966;2023-05-15T01:17:55;11.90;;;7.90;;
6105;SDS011;3083;51.508;7.966;2023-05-15T01:20:22;14.30;;;8.53;;
6105;SDS011;3083;51.508;7.966;2023-05-15T01:22:57;15.50;;;8.90;;
6105;SDS011;3083;51.508;7.966;2023-05-15T01:28:36;14.20;;;8.40;;
6105;SDS011;3083;51.508;7.966;2023-05-15T01:31:09;18.30;;;8.60;;
6105;SDS011;3083;51.508;7.966;2023-05-15T01:33:39;12.60;;;8.27;;
6105;SDS011;3083;51.508;7.966;2023-05-15T01:36:11;11.27;;;7.50;;
6105;SDS011;3083;51.508;7.966;2023-05-15T01:38:45;16.67;;;7.87;;
6105;SDS011;3083;51.508;7.966;2023-05-15T01:41:17;13.00;;;8.03;;
6105;SDS011;3083;51.508;7.966;2023-05-15T01:43:51;13.93;;;8.10;;
6105;SDS011;3083;51.508;7.966;2023-05-15T01:46:22;11.80;;;7.70;;
6105;SDS011;3083;51.508;7.966;2023-05-15T01:48:50;11.53;;;7.30;;
6105;SDS011;3083;51.508;7.966;2023-05-15T01:51:18;11.80;;;7.73;;
6105;SDS011;3083;51.508;7.966;2023-05-15T01:53:47;12.37;;;7.53;;
6105;SDS011;3083;51.508;7.966;2023-05-15T01:56:15;13.90;;;7.37;;
6105;SDS011;3083;51.508;7.966;2023-05-15T01:58:44;12.60;;;8.00;;
6105;SDS011;3083;51.508;7.966;2023-05-15T02:01:13;15.80;;;8.20;;
6105;SDS011;3083;51.508;7.966;2023-05-15T02:03:42;13.57;;;8.73;;
6105;SDS011;3083;51.508;7.966;2023-05-15T02:06:10;14.03;;;8.40;;
6105;SDS011;3083;51.508;7.966;2023-05-15T02:08:38;12.70;;;7.50;;
6105;SDS011;3083;51.508;7.966;2023-05-15T02:11:07;15.20;;;8.60;;
6105;SDS011;3083;51.508;7.966;2023-05-15T02:13:34;16.43;;;9.20;;
6105;SDS011;3083;51.508;7.966;2023-05-15T02:16:01;15.20;;;8.30;;
6105;SDS011;3083;51.508;7.966;2023-05-15T02:18:29;16.20;;;8.27;;
6105;SDS011;3083;51.508;7.966;2023-05-15T02:20:56;12.93;;;7.87;;
6105;SDS011;3083;51.508;7.966;2023-05-15T02:23:25;12.03;;;7.50;;
6105;SDS011;3083;51.508;7.966;2023-05-15T02:25:55;15.67;;;7.90;;
6105;SDS011;3083;51.508;7.966;2023-05-15T02:28:36;13.80;;;8.40;;
6105;SDS011;3083;51.508;7.966;2023-05-15T02:31:11;13.93;;;8.03;;
6105;SDS011;3083;51.508;7.966;2023-05-15T02:33:47;13.90;;;8.73;;
6105;SDS011;3083;51.508;7.966;2023-05-15T02:36:22;13.73;;;7.43;;
6105;SDS011;3083;51.508;7.966;2023-05-15T02:38:53;13.50;;;8.30;;
6105;SDS011;3083;51.508;7.966;2023-05-15T02:41:21;17.80;;;9.50;;
6105;SDS011;3083;51.508;7.966;2023-05-15T02:43:49;14.37;;;7.83;;
6105;SDS011;3083;51.508;7.966;2023-05-15T02:46:19;14.87;;;8.13;;
6105;SDS011;3083;51.508;7.966;2023-05-15T02:48:50;16.20;;;8.43;;
6105;SDS011;3083;51.508;7.966;2023-05-15T02:51:18;15.70;;;8.83;;
6105;SDS011;3083;51.508;7.966;2023-05-15T02:53:45;12.63;;;8.10;;
6105;SDS011;3083;51.508;7.966;2023-05-15T02:56:12;14.63;;;8.43;;
6105;SDS011;3083;51.508;7.966;2023-05-15T02:58:39;15.60;;;8.30;;
6105;SDS011;3083;51.508;7.966;2023-05-15T03:01:06;12.90;;;8.50;;
6105;SDS011;3083;51.508;7.966;2023-05-15T03:03:33;14.50;;;8.90;;
6105;SDS011;3083;51.508;7.966;2023-05-15T03:06:01;16.20;;;8.97;;
6105;SDS011;3083;51.508;7.966;2023-05-15T03:08:28;20.00;;;8.70;;
6105;SDS011;3083;51.508;7.966;2023-05-15T03:10:55;15.00;;;8.67;;
6105;SDS011;3083;51.508;7.966;2023-05-15T03:13:22;16.13;;;8.47;;
6105;SDS011;3083;51.508;7.966;2023-05-15T03:15:49;14.73;;;8.70;;
6105;SDS011;3083;51.508;7.966;2023-05-15T03:18:16;15.00;;;8.70;;
6105;SDS011;3083;51.508;7.966;2023-05-15T03:20:43;17.03;;;9.03;;
6105;SDS011;3083;51.508;7.966;2023-05-15T03:23:11;14.77;;;8.73;;
6105;SDS011;3083;51.508;7.966;2023-05-15T03:25:38;16.30;;;9.27;;
6105;SDS011;3083;51.508;7.966;2023-05-15T03:28:05;12.53;;;8.13;;
6105;SDS011;3083;51.508;7.966;2023-05-15T03:30:32;19.47;;;8.83;;
6105;SDS011;3083;51.508;7.966;2023-05-15T03:32:59;14.50;;;9.10;;
6105;SDS011;3083;51.508;7.966;2023-05-15T03:35:27;15.03;;;8.53;;
6105;SDS011;3083;51.508;7.966;2023-05-15T03:37:56;13.27;;;7.97;;
6105;SDS011;3083;51.508;7.966;2023-05-15T03:40:24;16.10;;;9.60;;
6105;SDS011;3083;51.508;7.966;2023-05-15T03:42:51;16.57;;;9.87;;
6105;SDS011;3083;51.508;7.966;2023-05-15T03:45:18;18.17;;;9.30;;
6105;SDS011;3083;51.508;7.966;2023-05-15T03:47:45;15.90;;;9.13;;
6105;SDS011;3083;51.508;7.966;2023-05-15T03:50:12;19.90;;;9.20;;
6105;SDS011;3083;51.508;7.966;2023-05-15T03:52:39;18.60;;;9.13;;
6105;SDS011;3083;51.508;7.966;2023-05-15T03:55:06;16.03;;;8.77;;
6105;SDS011;3083;51.508;7.966;2023-05-15T03:57:34;14.60;;;8.87;;
6105;SDS011;3083;51.508;7.966;2023-05-15T04:00:01;17.20;;;8.90;;
6105;SDS011;3083;51.508;7.966;2023-05-15T04:02:33;17.60;;;9.23;;
6105;SDS011;3083;51.508;7.966;2023-05-15T04:05:01;18.60;;;9.47;;
6105;SDS011;3083;51.508;7.966;2023-05-15T04:07:28;15.80;;;9.57;;
6105;SDS011;3083;51.508;7.966;2023-05-15T04:09:55;18.00;;;9.47;;
6105;SDS011;3083;51.508;7.966;2023-05-15T04:12:25;17.33;;;9.20;;
6105;SDS011;3083;51.508;7.966;2023-05-15T04:14:55;16.10;;;9.40;;
6105;SDS011;3083;51.508;7.966;2023-05-15T04:17:24;14.80;;;9.40;;
6105;SDS011;3083;51.508;7.966;2023-05-15T04:19:51;16.67;;;9.70;;
6105;SDS011;3083;51.508;7.966;2023-05-15T04:22:17;16.73;;;9.60;;
6105;SDS011;3083;51.508;7.966;2023-05-15T04:24:44;18.73;;;10.27;;
6105;SDS011;3083;51.508;7.966;2023-05-15T04:27:11;15.50;;;10.27;;
6105;SDS011;3083;51.508;7.966;2023-05-15T04:29:38;17.50;;;9.83;;
6105;SDS011;3083;51.508;7.966;2023-05-15T04:32:06;20.37;;;9.90;;
6105;SDS011;3083;51.508;7.966;2023-05-15T04:34:33;15.10;;;9.20;;
6105;SDS011;3083;51.508;7.966;2023-05-15T04:37:00;17.27;;;10.30;;
6105;SDS011;3083;51.508;7.966;2023-05-15T04:39:27;16.77;;;10.20;;
6105;SDS011;3083;51.508;7.966;2023-05-15T04:41:54;22.87;;;10.97;;
6105;SDS011;3083;51.508;7.966;2023-05-15T04:44:21;18.93;;;10.10;;
6105;SDS011;3083;51.508;7.966;2023-05-15T04:46:48;21.30;;;10.77;;
6105;SDS011;3083;51.508;7.966;2023-05-15T04:49:18;15.73;;;9.70;;
6105;SDS011;3083;51.508;7.966;2023-05-15T04:51:45;18.53;;;10.80;;
6105;SDS011;3083;51.508;7.966;2023-05-15T04:54:12;16.93;;;9.80;;
6105;SDS011;3083;51.508;7.966;2023-05-15T04:56:39;18.07;;;11.07;;
6105;SDS011;3083;51.508;7.966;2023-05-15T04:59:06;20.33;;;10.20;;
6105;SDS011;3083;51.508;7.966;2023-05-15T05:01:33;18.00;;;10.67;;
6105;SDS011;3083;51.508;7.966;2023-05-15T05:04:01;15.43;;;9.40;;
6105;SDS011;3083;51.508;7.966;2023-05-15T05:06:29;18.20;;;10.77;;
6105;SDS011;3083;51.508;7.966;2023-05-15T05:08:56;21.00;;;11.40;;
6105;SDS011;3083;51.508;7.966;2023-05-15T05:11:23;19.97;;;11.03;;
6105;SDS011;3083;51.508;7.966;2023-05-15T05:13:50;18.27;;;11.00;;
6105;SDS011;3083;51.508;7.966;2023-05-15T05:16:17;25.53;;;12.27;;
6105;SDS011;3083;51.508;7.966;2023-05-15T05:18:44;26.13;;;13.17;;
6105;SDS011;3083;51.508;7.966;2023-05-15T05:21:11;27.23;;;13.60;;
6105;SDS011;3083;51.508;7.966;2023-05-15T05:23:39;33.80;;;14.17;;
6105;SDS011;3083;51.508;7.966;2023-05-15T05:26:06;32.77;;;14.87;;
6105;SDS011;3083;51.508;7.966;2023-05-15T05:28:32;34.43;;;15.30;;
6105;SDS011;3083;51.508;7.966;2023-05-15T05:30:59;45.40;;;15.87;;
6105;SDS011;3083;51.508;7.966;2023-05-15T05:33:27;38.53;;;17.90;;
6105;SDS011;3083;51.508;7.966;2023-05-15T05:35:53;39.20;;;17.00;;
6105;SDS011;3083;51.508;7.966;2023-05-15T05:38:20;39.47;;;17.47;;
6105;SDS011;3083;51.508;7.966;2023-05-15T05:40:49;44.20;;;17.27;;
6105;SDS011;3083;51.508;7.966;2023-05-15T05:43:16;43.10;;;17.97;;
6105;SDS011;3083;51.508;7.966;2023-05-15T05:45:42;38.17;;;16.23;;
6105;SDS011;3083;51.508;7.966;2023-05-15T05:48:10;47.47;;;19.13;;
6105;SDS011;3083;51.508;7.966;2023-05-15T05:50:37;51.30;;;18.63;;
6105;SDS011;3083;51.508;7.966;2023-05-15T05:53:04;44.40;;;18.97;;
6105;SDS011;3083;51.508;7.966;2023-05-15T05:55:31;46.50;;;20.37;;
6105;SDS011;3083;51.508;7.966;2023-05-15T05:57:59;43.33;;;20.40;;
6105;SDS011;3083;51.508;7.966;2023-05-15T06:00:26;46.30;;;19.87;;
6105;SDS011;3083;51.508;7.966;2023-05-15T06:02:55;52.47;;;20.90;;
6105;SDS011;3083;51.508;7.966;2023-05-15T06:05:23;51.17;;;21.27;;
6105;SDS011;3083;51.508;7.966;2023-05-15T06:07:51;51.17;;;21.73;;
6105;SDS011;3083;51.508;7.966;2023-05-15T06:10:18;51.90;;;21.67;;
6105;SDS011;3083;51.508;7.966;2023-05-15T06:12:45;55.27;;;23.47;;
6105;SDS011;3083;51.508;7.966;2023-05-15T06:15:14;60.30;;;24.50;;
6105;SDS011;3083;51.508;7.966;2023-05-15T06:17:41;61.47;;;24.10;;
6105;SDS011;3083;51.508;7.966;2023-05-15T06:20:08;64.50;;;26.17;;
6105;SDS011;3083;51.508;7.966;2023-05-15T06:22:36;67.40;;;26.77;;
6105;SDS011;3083;51.508;7.966;2023-05-15T06:25:04;72.67;;;25.70;;
6105;SDS011;3083;51.508;7.966;2023-05-15T06:27:31;74.57;;;26.80;;
6105;SDS011;3083;51.508;7.966;2023-05-15T06:29:59;67.13;;;25.97;;
6105;SDS011;3083;51.508;7.966;2023-05-15T06:32:27;64.30;;;24.70;;
6105;SDS011;3083;51.508;7.966;2023-05-15T06:34:55;65.10;;;26.20;;
6105;SDS011;3083;51.508;7.966;2023-05-15T06:37:21;58.00;;;23.57;;
6105;SDS011;3083;51.508;7.966;2023-05-15T06:39:48;63.60;;;24.80;;
6105;SDS011;3083;51.508;7.966;2023-05-15T06:42:15;61.63;;;24.50;;
6105;SDS011;3083;51.508;7.966;2023-05-15T06:44:42;63.97;;;25.87;;
6105;SDS011;3083;51.508;7.966;2023-05-15T06:47:09;55.47;;;23.57;;
6105;SDS011;3083;51.508;7.966;2023-05-15T06:49:37;60.70;;;23.80;;
6105;SDS011;3083;51.508;7.966;2023-05-15T06:52:04;58.43;;;23.90;;
6105;SDS011;3083;51.508;7.966;2023-05-15T06:54:31;63.63;;;26.00;;
6105;SDS011;3083;51.508;7.966;2023-05-15T06:56:58;60.30;;;23.90;;
6105;SDS011;3083;51.508;7.966;2023-05-15T06:59:25;65.40;;;24.80;;
6105;SDS011;3083;51.508;7.966;2023-05-15T07:01:52;56.70;;;24.87;;
6105;SDS011;3083;51.508;7.966;2023-05-15T07:04:20;64.03;;;26.30;;
6105;SDS011;3083;51.508;7.966;2023-05-15T07:06:48;62.40;;;26.30;;
6105;SDS011;3083;51.508;7.966;2023-05-15T07:09:15;62.90;;;25.60;;
6105;SDS011;3083;51.508;7.966;2023-05-15T07:11:42;59.50;;;24.73;;
6105;SDS011;3083;51.508;7.966;2023-05-15T07:14:09;61.53;;;26.20;;
6105;SDS011;3083;51.508;7.966;2023-05-15T07:16:36;63.43;;;25.20;;
6105;SDS011;3083;51.508;7.966;2023-05-15T07:19:03;71.03;;;28.00;;
6105;SDS011;3083;51.508;7.966;2023-05-15T07:21:30;61.70;;;24.70;;
6105;SDS011;3083;51.508;7.966;2023-05-15T07:23:58;50.97;;;24.10;;
6105;SDS011;3083;51.508;7.966;2023-05-15T07:26:25;64.20;;;24.77;;
6105;SDS011;3083;51.508;7.966;2023-05-15T07:28:52;62.47;;;25.23;;
6105;SDS011;3083;51.508;7.966;2023-05-15T07:31:19;78.23;;;27.87;;
6105;SDS011;3083;51.508;7.966;2023-05-15T07:33:46;65.13;;;25.93;;
6105;SDS011;3083;51.508;7.966;2023-05-15T07:36:13;63.30;;;27.40;;
6105;SDS011;3083;51.508;7.966;2023-05-15T07:38:40;60.20;;;26.17;;
6105;SDS011;3083;51.508;7.966;2023-05-15T07:41:08;55.20;;;24.87;;
6105;SDS011;3083;51.508;7.966;2023-05-15T07:43:35;65.43;;;28.80;;
6105;SDS011;3083;51.508;7.966;2023-05-15T07:46:01;60.93;;;25.60;;
6105;SDS011;3083;51.508;7.966;2023-05-15T07:48:28;57.73;;;26.20;;
6105;SDS011;3083;51.508;7.966;2023-05-15T07:50:55;56.63;;;24.53;;
6105;SDS011;3083;51.508;7.966;2023-05-15T07:53:22;57.70;;;24.90;;
6105;SDS011;3083;51.508;7.966;2023-05-15T07:55:49;54.07;;;25.60;;
6105;SDS011;3083;51.508;7.966;2023-05-15T07:58:17;51.10;;;24.30;;
6105;SDS011;3083;51.508;7.966;2023-05-15T08:00:44;49.93;;;24.07;;
6105;SDS011;3083;51.508;7.966;2023-05-15T08:03:11;51.27;;;24.63;;
6105;SDS011;3083;51.508;7.966;2023-05-15T08:05:38;57.30;;;26.77;;
6105;SDS011;3083;51.508;7.966;2023-05-15T08:08:05;53.10;;;25.60;;
6105;SDS011;3083;51.508;7.966;2023-05-15T08:10:32;50.70;;;25.00;;
6105;SDS011;3083;51.508;7.966;2023-05-15T08:12:58;46.60;;;24.20;;
6105;SDS011;3083;51.508;7.966;2023-05-15T08:15:27;52.50;;;26.03;;
6105;SDS011;3083;51.508;7.966;2023-05-15T08:17:54;53.37;;;26.30;;
6105;SDS011;3083;51.508;7.966;2023-05-15T08:20:21;49.63;;;25.73;;
6105;SDS011;3083;51.508;7.966;2023-05-15T08:22:48;51.27;;;24.73;;
6105;SDS011;3083;51.508;7.966;2023-05-15T08:25:15;48.53;;;24.63;;
6105;SDS011;3083;51.508;7.966;2023-05-15T08:27:42;55.33;;;24.80;;
6105;SDS011;3083;51.508;7.966;2023-05-15T08:30:09;50.33;;;24.97;;
6105;SDS011;3083;51.508;7.966;2023-05-15T08:32:38;49.03;;;26.50;;
6105;SDS011;3083;51.508;7.966;2023-05-15T08:35:05;46.07;;;25.93;;
6105;SDS011;3083;51.508;7.966;2023-05-15T08:37:32;49.47;;;26.23;;
6105;SDS011;3083;51.508;7.966;2023-05-15T08:40:00;45.97;;;25.50;;
6105;SDS011;3083;51.508;7.966;2023-05-15T08:42:31;50.00;;;27.37;;
6105;SDS011;3083;51.508;7.966;2023-05-15T08:45:00;49.60;;;26.80;;
6105;SDS011;3083;51.508;7.966;2023-05-15T08:47:28;47.30;;;27.63;;
6105;SDS011;3083;51.508;7.966;2023-05-15T08:50:06;49.87;;;26.40;;
6105;SDS011;3083;51.508;7.966;2023-05-15T08:52:36;51.73;;;27.30;;
6105;SDS011;3083;51.508;7.966;2023-05-15T08:55:06;47.07;;;28.23;;
6105;SDS011;3083;51.508;7.966;2023-05-15T08:57:33;48.63;;;28.83;;
6105;SDS011;3083;51.508;7.966;2023-05-15T09:00:01;53.03;;;29.37;;
6105;SDS011;3083;51.508;7.966;2023-05-15T09:02:32;48.90;;;29.77;;
6105;SDS011;3083;51.508;7.966;2023-05-15T09:04:59;49.93;;;30.00;;
6105;SDS011;3083;51.508;7.966;2023-05-15T09:07:27;53.40;;;30.30;;
6105;SDS011;3083;51.508;7.966;2023-05-15T09:09:55;50.80;;;29.50;;
6105;SDS011;3083;51.508;7.966;2023-05-15T09:12:23;58.93;;;35.10;;
6105;SDS011;3083;51.508;7.966;2023-05-15T09:14:51;64.40;;;37.23;;
6105;SDS011;3083;51.508;7.966;2023-05-15T09:17:33;56.83;;;32.73;;
6105;SDS011;3083;51.508;7.966;2023-05-15T09:20:00;62.17;;;35.70;;
6105;SDS011;3083;51.508;7.966;2023-05-15T09:22:32;69.13;;;37.07;;
6105;SDS011;3083;51.508;7.966;2023-05-15T09:25:00;68.60;;;37.60;;
6105;SDS011;3083;51.508;7.966;2023-05-15T09:27:27;71.50;;;39.50;;
6105;SDS011;3083;51.508;7.966;2023-05-15T09:29:54;73.93;;;40.97;;
6105;SDS011;3083;51.508;7.966;2023-05-15T09:32:25;76.13;;;38.73;;
6105;SDS011;3083;51.508;7.966;2023-05-15T09:34:52;72.77;;;38.83;;
6105;SDS011;3083;51.508;7.966;2023-05-15T09:37:28;68.63;;;39.30;;
6105;SDS011;3083;51.508;7.966;2023-05-15T09:40:07;69.20;;;37.93;;
6105;SDS011;3083;51.508;7.966;2023-05-15T09:42:35;72.13;;;38.07;;
6105;SDS011;3083;51.508;7.966;2023-05-15T09:45:03;80.07;;;39.23;;
6105;SDS011;3083;51.508;7.966;2023-05-15T09:47:30;67.17;;;39.13;;
6105;SDS011;3083;51.508;7.966;2023-05-15T09:49:57;63.87;;;38.10;;
6105;SDS011;3083;51.508;7.966;2023-05-15T09:52:25;77.37;;;40.03;;
6105;SDS011;3083;51.508;7.966;2023-05-15T09:54:55;71.43;;;37.67;;
6105;SDS011;3083;51.508;7.966;2023-05-15T09:57:22;73.63;;;39.77;;
6105;SDS011;3083;51.508;7.966;2023-05-15T09:59:49;67.07;;;38.03;;
6105;SDS011;3083;51.508;7.966;2023-05-15T10:02:23;66.47;;;37.20;;
6105;SDS011;3083;51.508;7.966;2023-05-15T10:04:54;67.20;;;38.57;;
6105;SDS011;3083;51.508;7.966;2023-05-15T10:07:28;62.90;;;37.03;;
6105;SDS011;3083;51.508;7.966;2023-05-15T10:09:58;59.00;;;35.67;;
6105;SDS011;3083;51.508;7.966;2023-05-15T10:12:27;61.67;;;36.00;;
6105;SDS011;3083;51.508;7.966;2023-05-15T10:14:55;63.90;;;35.00;;
6105;SDS011;3083;51.508;7.966;2023-05-15T10:17:23;66.87;;;36.40;;
6105;SDS011;3083;51.508;7.966;2023-05-15T10:19:51;56.73;;;33.33;;
6105;SDS011;3083;51.508;7.966;2023-05-15T10:22:20;61.17;;;35.17;;
6105;SDS011;3083;51.508;7.966;2023-05-15T10:24:49;58.10;;;33.10;;
6105;SDS011;3083;51.508;7.966;2023-05-15T10:27:23;58.90;;;33.87;;
6105;SDS011;3083;51.508;7.966;2023-05-15T10:29:51;58.80;;;34.30;;
6105;SDS011;3083;51.508;7.966;2023-05-15T10:32:20;56.73;;;35.00;;
6105;SDS011;3083;51.508;7.966;2023-05-15T10:34:47;57.20;;;32.43;;
6105;SDS011;3083;51.508;7.966;2023-05-15T10:37:15;54.50;;;31.40;;
6105;SDS011;3083;51.508;7.966;2023-05-15T10:39:43;53.10;;;31.10;;
6105;SDS011;3083;51.508;7.966;2023-05-15T10:42:12;55.53;;;28.27;;
6105;SDS011;3083;51.508;7.966;2023-05-15T10:44:41;51.47;;;31.83;;
6105;SDS011;3083;51.508;7.966;2023-05-15T10:47:08;50.10;;;29.73;;
6105;SDS011;3083;51.508;7.966;2023-05-15T10:49:35;43.90;;;27.27;;
6105;SDS011;3083;51.508;7.966;2023-05-15T10:52:02;53.33;;;28.70;;
6105;SDS011;3083;51.508;7.966;2023-05-15T10:54:29;45.10;;;27.67;;
6105;SDS011;3083;51.508;7.966;2023-05-15T10:56:57;47.70;;;29.43;;
6105;SDS011;3083;51.508;7.966;2023-05-15T10:59:29;45.87;;;29.70;;
6105;SDS011;3083;51.508;7.966;2023-05-15T11:01:58;46.73;;;30.57;;
6105;SDS011;3083;51.508;7.966;2023-05-15T11:04:45;48.97;;;30.13;;
6105;SDS011;3083;51.508;7.966;2023-05-15T11:07:13;42.47;;;28.57;;
6105;SDS011;3083;51.508;7.966;2023-05-15T11:09:40;38.43;;;26.30;;
6105;SDS011;3083;51.508;7.966;2023-05-15T11:12:08;40.60;;;27.13;;
6105;SDS011;3083;51.508;7.966;2023-05-15T11:14:36;41.37;;;27.13;;
6105;SDS011;3083;51.508;7.966;2023-05-15T11:17:08;37.40;;;26.27;;
6105;SDS011;3083;51.508;7.966;2023-05-15T11:19:37;41.43;;;27.17;;
6105;SDS011;3083;51.508;7.966;2023-05-15T11:22:25;43.30;;;29.13;;
6105;SDS011;3083;51.508;7.966;2023-05-15T11:24:53;39.77;;;26.93;;
6105;SDS011;3083;51.508;7.966;2023-05-15T11:27:24;41.23;;;26.90;;
6105;SDS011;3083;51.508;7.966;2023-05-15T11:30:07;32.80;;;23.63;;
6105;SDS011;3083;51.508;7.966;2023-05-15T11:32:50;32.70;;;23.73;;
6105;SDS011;3083;51.508;7.966;2023-05-15T11:35:21;32.63;;;22.73;;
6105;SDS011;3083;51.508;7.966;2023-05-15T11:37:50;38.17;;;25.47;;
6105;SDS011;3083;51.508;7.966;2023-05-15T11:40:18;37.50;;;26.30;;
6105;SDS011;3083;51.508;7.966;2023-05-15T11:45:42;28.93;;;21.40;;
6105;SDS011;3083;51.508;7.966;2023-05-15T11:48:13;29.47;;;20.83;;
6105;SDS011;3083;51.508;7.966;2023-05-15T11:50:42;25.30;;;18.57;;
6105;SDS011;3083;51.508;7.966;2023-05-15T11:53:09;30.10;;;20.70;;
6105;SDS011;3083;51.508;7.966;2023-05-15T11:55:37;27.50;;;19.70;;
6105;SDS011;3083;51.508;7.966;2023-05-15T11:58:09;27.30;;;19.20;;
6105;SDS011;3083;51.508;7.966;2023-05-15T12:00:37;23.97;;;17.23;;
6105;SDS011;3083;51.508;7.966;2023-05-15T12:03:04;26.83;;;19.70;;
6105;SDS011;3083;51.508;7.966;2023-05-15T12:05:34;30.37;;;19.93;;
6105;SDS011;3083;51.508;7.966;2023-05-15T12:08:01;27.10;;;18.67;;
6105;SDS011;3083;51.508;7.966;2023-05-15T12:10:28;24.43;;;16.40;;
6105;SDS011;3083;51.508;7.966;2023-05-15T12:12:56;26.60;;;18.30;;
6105;SDS011;3083;51.508;7.966;2023-05-15T12:15:25;27.20;;;18.77;;
6105;SDS011;3083;51.508;7.966;2023-05-15T12:17:52;25.10;;;18.37;;
6105;SDS011;3083;51.508;7.966;2023-05-15T12:20:19;27.40;;;19.60;;
6105;SDS011;3083;51.508;7.966;2023-05-15T12:22:47;33.50;;;20.00;;
6105;SDS011;3083;51.508;7.966;2023-05-15T12:25:14;27.57;;;20.23;;
6105;SDS011;3083;51.508;7.966;2023-05-15T12:27:41;27.50;;;20.10;;
6105;SDS011;3083;51.508;7.966;2023-05-15T12:30:09;27.37;;;19.33;;
6105;SDS011;3083;51.508;7.966;2023-05-15T12:32:38;26.03;;;18.93;;
6105;SDS011;3083;51.508;7.966;2023-05-15T12:35:06;23.70;;;17.63;;
6105;SDS011;3083;51.508;7.966;2023-05-15T12:37:34;25.20;;;18.97;;
6105;SDS011;3083;51.508;7.966;2023-05-15T12:40:03;23.93;;;18.37;;
6105;SDS011;3083;51.508;7.966;2023-05-15T12:42:37;27.80;;;20.27;;
6105;SDS011;3083;51.508;7.966;2023-05-15T12:45:10;27.43;;;20.10;;
6105;SDS011;3083;51.508;7.966;2023-05-15T12:47:39;30.67;;;19.27;;
6105;SDS011;3083;51.508;7.966;2023-05-15T12:50:11;25.80;;;18.30;;
6105;SDS011;3083;51.508;7.966;2023-05-15T12:52:39;26.23;;;18.43;;
6105;SDS011;3083;51.508;7.966;2023-05-15T12:55:08;25.33;;;18.00;;
6105;SDS011;3083;51.508;7.966;2023-05-15T12:57:41;24.83;;;18.20;;
6105;SDS011;3083;51.508;7.966;2023-05-15T13:00:10;32.63;;;20.17;;
6105;SDS011;3083;51.508;7.966;2023-05-15T13:02:41;28.90;;;20.40;;
6105;SDS011;3083;51.508;7.966;2023-05-15T13:05:08;28.77;;;20.57;;
6105;SDS011;3083;51.508;7.966;2023-05-15T13:07:36;28.50;;;19.80;;
6105;SDS011;3083;51.508;7.966;2023-05-15T13:10:04;32.03;;;19.67;;
6105;SDS011;3083;51.508;7.966;2023-05-15T13:12:36;33.67;;;22.83;;
6105;SDS011;3083;51.508;7.966;2023-05-15T13:15:05;31.30;;;21.13;;
6105;SDS011;3083;51.508;7.966;2023-05-15T13:17:33;35.07;;;22.50;;
6105;SDS011;3083;51.508;7.966;2023-05-15T13:20:00;33.97;;;22.60;;
6105;SDS011;3083;51.508;7.966;2023-05-15T13:22:29;34.87;;;20.60;;
6105;SDS011;3083;51.508;7.966;2023-05-15T13:24:56;33.17;;;21.50;;
6105;SDS011;3083;51.508;7.966;2023-05-15T13:27:23;33.87;;;21.40;;
6105;SDS011;3083;51.508;7.966;2023-05-15T13:29:52;33.67;;;21.40;;
6105;SDS011;3083;51.508;7.966;2023-05-15T13:32:19;29.70;;;19.53;;
6105;SDS011;3083;51.508;7.966;2023-05-15T13:34:47;26.87;;;18.10;;
6105;SDS011;3083;51.508;7.966;2023-05-15T13:37:14;26.60;;;17.67;;
6105;SDS011;3083;51.508;7.966;2023-05-15T13:39:41;25.57;;;16.50;;
6105;SDS011;3083;51.508;7.966;2023-05-15T13:42:08;22.60;;;15.10;;
6105;SDS011;3083;51.508;7.966;2023-05-15T13:44:35;22.70;;;15.77;;
6105;SDS011;3083;51.508;7.966;2023-05-15T13:47:03;21.37;;;15.60;;
6105;SDS011;3083;51.508;7.966;2023-05-15T13:49:31;22.50;;;15.23;;
6105;SDS011;3083;51.508;7.966;2023-05-15T13:51:58;23.67;;;15.77;;
6105;SDS011;3083;51.508;7.966;2023-05-15T13:54:25;22.73;;;16.03;;
6105;SDS011;3083;51.508;7.966;2023-05-15T13:56:52;20.80;;;14.40;;
6105;SDS011;3083;51.508;7.966;2023-05-15T13:59:18;22.10;;;15.77;;
6105;SDS011;3083;51.508;7.966;2023-05-15T14:01:46;21.23;;;14.20;;
6105;SDS011;3083;51.508;7.966;2023-05-15T14:04:14;21.07;;;15.67;;
6105;SDS011;3083;51.508;7.966;2023-05-15T14:06:41;20.27;;;13.87;;
6105;SDS011;3083;51.508;7.966;2023-05-15T14:09:08;19.80;;;13.80;;
6105;SDS011;3083;51.508;7.966;2023-05-15T14:11:35;19.17;;;13.70;;
6105;SDS011;3083;51.508;7.966;2023-05-15T14:14:02;22.17;;;13.77;;
6105;SDS011;3083;51.508;7.966;2023-05-15T14:16:29;20.87;;;13.70;;
6105;SDS011;3083;51.508;7.966;2023-05-15T14:18:56;20.67;;;13.17;;
6105;SDS011;3083;51.508;7.966;2023-05-15T14:21:25;15.23;;;11.53;;
6105;SDS011;3083;51.508;7.966;2023-05-15T14:23:51;17.17;;;11.50;;
6105;SDS011;3083;51.508;7.966;2023-05-15T14:26:18;17.20;;;10.37;;
6105;SDS011;3083;51.508;7.966;2023-05-15T14:28:46;17.87;;;10.23;;
6105;SDS011;3083;51.508;7.966;2023-05-15T14:31:13;15.00;;;10.57;;
6105;SDS011;3083;51.508;7.966;2023-05-15T14:33:39;15.73;;;11.43;;
6105;SDS011;3083;51.508;7.966;2023-05-15T14:36:06;16.83;;;10.83;;
6105;SDS011;3083;51.508;7.966;2023-05-15T14:38:35;13.40;;;10.50;;
6105;SDS011;3083;51.508;7.966;2023-05-15T14:41:02;13.27;;;10.53;;
6105;SDS011;3083;51.508;7.966;2023-05-15T14:43:30;17.30;;;10.07;;
6105;SDS011;3083;51.508;7.966;2023-05-15T14:45:56;15.90;;;10.20;;
6105;SDS011;3083;51.508;7.966;2023-05-15T14:48:23;12.97;;;10.07;;
6105;SDS011;3083;51.508;7.966;2023-05-15T14:50:50;13.13;;;9.47;;
6105;SDS011;3083;51.508;7.966;2023-05-15T14:53:17;13.83;;;9.70;;
6105;SDS011;3083;51.508;7.966;2023-05-15T14:55:45;11.90;;;9.07;;
6105;SDS011;3083;51.508;7.966;2023-05-15T14:58:12;13.30;;;9.03;;
6105;SDS011;3083;51.508;7.966;2023-05-15T15:00:39;13.53;;;9.37;;
6105;SDS011;3083;51.508;7.966;2023-05-15T15:03:06;11.90;;;8.60;;
6105;SDS011;3083;51.508;7.966;2023-05-15T15:05:33;12.53;;;9.10;;